Time;durP1;ratioP1;P1;durP2;ratioP2;P2;SDS_P1;SDS_P2;PMS_P1;PMS_P2;Temp;Humidity;BMP_temperature;BMP_pressure;BME280_temperature;BME280_humidity;BME280_pressure;Samples;Min_cycle;Max_cycle;Signal;HPM_P1;HPM_P2
2022/05/03 00:01:42;;;;;;;5.33;3.20;;;;;;;10.09;100.00;94289.28;5055295;28;20654;-61
2022/05/03 00:04:26;;;;;;;4.17;3.10;;;;;;;10.13;100.00;94288.13;5055052;28;20174;-61
2022/05/03 00:07:10;;;;;;;3.40;2.63;;;;;;;10.12;100.00;94278.06;5055285;28;20194;-60
2022/05/03 00:10:02;;;;;;;4.03;3.40;;;;;;;10.12;100.00;94273.78;5054653;28;20201;-61
2022/05/03 00:12:52;;;;;;;5.87;3.40;;;;;;;10.18;100.00;94282.59;5054657;28;20201;-60
2022/05/03 00:15:21;;;;;;;7.60;3.67;;;;;;;10.26;100.00;94272.56;5036520;28;20224;-62
2022/05/03 00:17:50;;;;;;;4.53;3.23;;;;;;;10.28;100.00;94277.53;5054492;28;20201;-61
2022/05/03 00:20:17;;;;;;;5.70;3.30;;;;;;;10.29;100.00;94279.09;5054238;28;20186;-60
2022/05/03 00:22:43;;;;;;;4.03;3.30;;;;;;;10.36;100.00;94275.91;5054582;28;20198;-61
2022/05/03 00:25:09;;;;;;;7.40;3.37;;;;;;;10.43;100.00;94271.84;5054525;28;20188;-61
2022/05/03 00:27:35;;;;;;;4.27;3.00;;;;;;;10.52;100.00;94273.59;5054412;28;20220;-61
2022/05/03 00:30:02;;;;;;;6.17;3.50;;;;;;;10.66;100.00;94277.41;5054250;28;20206;-63
2022/05/03 00:32:29;;;;;;;4.43;2.97;;;;;;;10.54;100.00;94288.69;5036429;28;20205;-60
2022/05/03 00:35:00;;;;;;;4.03;3.37;;;;;;;10.36;100.00;94286.06;5054370;28;20169;-61
2022/05/03 00:37:26;;;;;;;6.60;3.57;;;;;;;10.24;100.00;94276.19;5054516;28;20270;-59
2022/05/03 00:39:52;;;;;;;4.10;3.23;;;;;;;10.14;100.00;94283.81;5054481;28;20185;-58
2022/05/03 00:42:40;;;;;;;4.10;3.07;;;;;;;10.07;100.00;94273.38;5054162;28;20201;-62
2022/05/03 00:45:19;;;;;;;3.37;3.07;;;;;;;10.07;100.00;94277.66;5054274;28;20173;-61
2022/05/03 00:48:01;;;;;;;3.73;3.13;;;;;;;9.86;100.00;94267.66;5054124;28;20259;-61
2022/05/03 00:50:39;;;;;;;3.47;2.97;;;;;;;10.02;100.00;94274.72;5054263;28;20226;-61
2022/05/03 00:53:10;;;;;;;3.50;3.20;;;;;;;9.91;100.00;94274.88;5035972;28;20213;-62
2022/05/03 00:55:53;;;;;;;3.50;2.97;;;;;;;9.88;100.00;94264.97;5054188;28;20304;-60
2022/05/03 00:58:43;;;;;;;5.17;4.10;;;;;;;9.76;100.00;94266.88;5053413;28;20209;-58
2022/05/03 01:01:35;;;;;;;4.70;3.50;;;;;;;9.80;100.00;94270.72;5037183;28;20594;-62
2022/05/03 01:04:18;;;;;;;4.43;3.30;;;;;;;9.95;100.00;94266.03;5030576;28;20206;-62
2022/05/03 01:07:13;;;;;;;3.30;3.00;;;;;;;9.98;100.00;94276.72;5054213;28;20683;-61
2022/05/03 01:10:17;;;;;;;6.87;3.30;;;;;;;9.83;100.00;94262.88;5035403;28;20210;-61
2022/05/03 01:13:03;;;;;;;4.67;3.37;;;;;;;9.78;100.00;94259.91;5053644;28;20209;-61
2022/05/03 01:15:36;;;;;;;7.80;3.43;;;;;;;9.68;100.00;94256.56;5053688;28;20178;-61
2022/05/03 01:18:25;;;;;;;3.70;3.40;;;;;;;9.74;100.00;94268.72;5053592;28;20543;-61
2022/05/03 01:21:12;;;;;;;4.60;3.47;;;;;;;9.72;100.00;94257.91;5053605;28;20178;-62
2022/05/03 01:24:20;;;;;;;4.60;3.13;;;;;;;9.71;100.00;94260.59;5053311;28;20185;-62
2022/05/03 01:26:48;;;;;;;3.47;3.17;;;;;;;9.93;100.00;94263.66;5053548;28;20278;-60
2022/05/03 01:29:33;;;;;;;3.30;3.00;;;;;;;9.90;100.00;94263.91;5053103;28;20335;-58
2022/05/03 01:32:04;;;;;;;5.10;3.37;;;;;;;9.99;100.00;94250.41;5034167;28;20247;-62
2022/05/03 01:34:31;;;;;;;3.47;3.03;;;;;;;9.94;100.00;94256.81;5053144;28;20189;-59
2022/05/03 01:36:59;;;;;;;4.63;2.93;;;;;;;9.94;100.00;94254.28;5053455;28;20210;-62
2022/05/03 01:39:37;;;;;;;4.33;2.80;;;;;;;9.89;100.00;94244.56;5053349;28;20236;-60
2022/05/03 01:42:23;;;;;;;3.97;3.57;;;;;;;9.94;100.00;94234.78;5052987;28;20271;-62
2022/05/03 01:45:07;;;;;;;5.90;3.50;;;;;;;9.91;100.00;94246.94;5052928;28;20177;-58
2022/05/03 01:47:49;;;;;;;3.87;2.67;;;;;;;9.73;100.00;94246.03;5052661;28;20616;-58
2022/05/03 01:50:32;;;;;;;6.23;2.87;;;;;;;9.73;100.00;94241.75;5052953;28;20217;-61
2022/05/03 01:53:07;;;;;;;4.37;3.37;;;;;;;9.67;100.00;94242.31;5052702;28;20713;-62
2022/05/03 01:55:44;;;;;;;3.47;3.17;;;;;;;9.71;100.00;94236.03;5052745;28;20646;-59
2022/05/03 01:58:53;;;;;;;2.93;2.60;;;;;;;9.64;100.00;94231.59;5034641;28;20209;-61
2022/05/03 02:01:39;;;;;;;3.23;2.93;;;;;;;9.71;100.00;94242.81;4997057;28;20284;-62
2022/05/03 02:04:11;;;;;;;3.40;3.10;;;;;;;9.73;100.00;94231.63;5052552;28;20174;-62
2022/05/03 02:07:11;;;;;;;4.63;3.40;;;;;;;9.83;100.00;94241.75;5052852;28;20217;-60
2022/05/03 02:09:40;;;;;;;3.23;2.93;;;;;;;9.75;100.00;94239.09;5051875;28;20214;-62
2022/05/03 02:12:10;;;;;;;4.13;2.80;;;;;;;9.70;100.00;94253.91;5052283;28;20201;-60
2022/05/03 02:14:44;;;;;;;5.93;3.57;;;;;;;9.71;100.00;94232.69;5052169;28;20177;-61
2022/05/03 02:17:34;;;;;;;5.67;4.00;;;;;;;9.62;100.00;94234.28;5052003;28;20618;-61
2022/05/03 02:20:28;;;;;;;3.17;2.83;;;;;;;9.74;100.00;94228.13;5052333;28;20311;-59
2022/05/03 02:23:32;;;;;;;4.77;3.03;;;;;;;9.72;100.00;94234.25;5052485;28;20331;-62
2022/05/03 02:26:09;;;;;;;4.73;3.60;;;;;;;9.68;100.00;94233.75;5052058;28;20651;-60
2022/05/03 02:28:38;;;;;;;4.03;3.63;;;;;;;9.62;100.00;94229.19;5051959;28;20225;-61
2022/05/03 02:31:07;;;;;;;3.97;3.57;;;;;;;9.75;100.00;94234.00;5052237;28;20207;-59
2022/05/03 02:33:38;;;;;;;4.00;3.47;;;;;;;9.73;100.00;94229.06;5052050;28;20194;-61
2022/05/03 02:36:09;;;;;;;3.70;3.20;;;;;;;9.76;100.00;94227.97;5052267;28;20180;-58
2022/05/03 02:38:47;;;;;;;4.70;4.07;;;;;;;9.64;100.00;94221.44;5052158;28;20197;-62
2022/05/03 02:41:13;;;;;;;4.67;3.73;;;;;;;9.62;100.00;94233.47;5051878;28;20200;-59
2022/05/03 02:43:39;;;;;;;5.37;3.80;;;;;;;9.54;100.00;94224.00;5051691;28;20180;-60
2022/05/03 02:46:34;;;;;;;4.40;4.00;;;;;;;9.67;100.00;94222.00;5034051;28;20184;-61
2022/05/03 02:49:04;;;;;;;4.93;4.50;;;;;;;9.74;100.00;94224.78;5025896;28;20256;-62
2022/05/03 02:51:50;;;;;;;4.40;4.00;;;;;;;9.66;100.00;94220.38;5051629;28;20201;-61
2022/05/03 02:54:25;;;;;;;4.60;4.10;;;;;;;9.66;100.00;94222.91;5034022;28;20623;-62
2022/05/03 02:57:20;;;;;;;3.93;3.50;;;;;;;9.58;100.00;94222.78;5034003;28;20196;-62
2022/05/03 03:03:07;;;;;;;4.83;3.97;;;;;;;9.40;100.00;94211.72;5051601;28;20240;-60
2022/05/03 03:05:37;;;;;;;5.23;3.87;;;;;;;9.34;100.00;94217.31;5051817;28;20180;-59
2022/05/03 03:08:03;;;;;;;4.77;4.23;;;;;;;9.26;100.00;94224.78;5051783;28;20206;-62
2022/05/03 03:10:41;;;;;;;4.53;3.93;;;;;;;9.37;100.00;94209.47;5052065;28;20186;-63
2022/05/03 03:13:25;;;;;;;5.63;4.33;;;;;;;9.24;100.00;94224.13;5051941;28;20202;-62
2022/05/03 03:15:51;;;;;;;5.87;4.80;;;;;;;9.27;100.00;94217.03;5051863;28;20182;-60
2022/05/03 03:18:22;;;;;;;4.97;4.53;;;;;;;9.32;100.00;94219.19;5034017;28;20602;-58
2022/05/03 03:20:56;;;;;;;4.57;4.17;;;;;;;9.37;100.00;94216.25;5052295;28;20180;-61
2022/05/03 03:23:26;;;;;;;5.20;4.50;;;;;;;9.44;100.00;94219.84;5055760;28;20205;-61
2022/05/03 03:25:51;;;;;;;4.93;4.33;;;;;;;9.40;100.00;94224.41;5037596;28;20224;-63
2022/05/03 03:28:22;;;;;;;5.13;4.47;;;;;;;9.33;100.00;94221.59;5055281;28;20699;-63
2022/05/03 03:30:50;;;;;;;5.60;4.50;;;;;;;9.41;100.00;94218.41;5055773;28;20189;-60
2022/05/03 03:33:17;;;;;;;5.27;4.27;;;;;;;9.35;100.00;94224.00;5055661;28;20256;-60
2022/05/03 03:35:45;;;;;;;4.30;3.90;;;;;;;9.33;100.00;94221.59;5055416;28;20214;-61
2022/05/03 03:38:13;;;;;;;5.37;4.63;;;;;;;9.24;100.00;94217.31;5055392;28;20206;-58
2022/05/03 03:40:39;;;;;;;4.87;4.00;;;;;;;9.27;100.00;94221.34;5055390;28;20182;-59
2022/05/03 03:43:06;;;;;;;5.67;4.27;;;;;;;9.28;100.00;94226.28;5036926;28;20208;-60
2022/05/03 03:45:32;;;;;;;4.80;3.83;;;;;;;9.32;100.00;94231.88;5055727;28;20226;-61
2022/05/03 03:48:00;;;;;;;4.77;3.83;;;;;;;9.29;100.00;94227.09;5054728;28;20209;-59
2022/05/03 03:50:27;;;;;;;5.40;4.43;;;;;;;9.41;100.00;94237.91;5067974;28;20754;-62
2022/05/03 03:52:53;;;;;;;5.43;4.73;;;;;;;9.43;100.00;94229.22;5042301;28;20217;-63
2022/05/03 03:55:19;;;;;;;4.93;3.97;;;;;;;9.49;100.00;94227.88;5037375;28;20186;-60
2022/05/03 03:57:46;;;;;;;7.20;4.87;;;;;;;9.48;100.00;94237.22;5054522;28;20263;-61
2022/05/03 04:00:14;;;;;;;4.23;3.83;;;;;;;9.65;100.00;94243.38;5055200;28;20243;-61
2022/05/03 04:02:44;;;;;;;6.50;4.90;;;;;;;9.69;100.00;94240.44;5055049;28;20205;-59
2022/05/03 04:05:18;;;;;;;6.03;4.80;;;;;;;9.73;100.00;94235.88;5054960;28;20667;-59
2022/05/03 04:07:44;;;;;;;4.83;4.20;;;;;;;9.77;100.00;94248.16;5055034;28;20354;-60
2022/05/03 04:10:10;;;;;;;8.80;4.57;;;;;;;9.65;100.00;94241.63;5055082;28;20221;-60
2022/05/03 04:12:36;;;;;;;5.73;4.33;;;;;;;9.57;100.00;94238.97;5054577;28;20202;-60
2022/05/03 04:15:02;;;;;;;5.73;4.03;;;;;;;9.59;100.00;94239.63;5054785;28;20185;-60
2022/05/03 04:17:28;;;;;;;5.80;4.73;;;;;;;9.54;100.00;94239.22;5054752;28;20194;-60
2022/05/03 04:19:53;;;;;;;5.53;4.43;;;;;;;9.74;100.00;94237.47;5036676;28;20239;-63
2022/05/03 04:22:30;;;;;;;6.73;4.83;;;;;;;9.85;100.00;94245.75;5020242;28;20801;-63
2022/05/03 04:24:57;;;;;;;5.87;4.73;;;;;;;9.82;100.00;94248.56;5054523;28;20558;-62
2022/05/03 04:27:22;;;;;;;5.53;4.77;;;;;;;9.56;100.00;94239.88;5054330;28;20206;-59
2022/05/03 04:29:49;;;;;;;6.17;3.90;;;;;;;9.69;100.00;94247.25;5054187;28;20201;-60
2022/05/03 04:32:15;;;;;;;4.10;3.70;;;;;;;9.60;100.00;94250.56;5054161;28;20206;-59
2022/05/03 04:34:40;;;;;;;3.97;3.50;;;;;;;9.75;100.00;94262.72;5053952;28;20216;-60
2022/05/03 04:37:06;;;;;;;5.33;3.83;;;;;;;9.69;100.00;94248.03;5036328;28;20217;-60
2022/05/03 04:39:32;;;;;;;4.63;4.23;;;;;;;9.66;100.00;94250.84;5054222;28;20243;-59
2022/05/03 04:41:58;;;;;;;6.33;3.60;;;;;;;9.50;100.00;94263.25;5054533;28;20198;-59
2022/05/03 04:44:23;;;;;;;4.07;3.47;;;;;;;9.42;100.00;94245.38;5054072;28;20194;-61
2022/05/03 04:46:49;;;;;;;6.83;4.10;;;;;;;9.37;100.00;94249.25;5054708;28;20193;-62
2022/05/03 04:49:15;;;;;;;3.83;3.30;;;;;;;9.35;100.00;94261.25;5053975;28;20252;-59
2022/05/03 04:51:40;;;;;;;4.53;4.07;;;;;;;9.32;100.00;94260.59;5054328;28;20206;-62
2022/05/03 04:54:06;;;;;;;3.23;2.93;;;;;;;9.32;100.00;94258.03;5054418;28;20185;-61
2022/05/03 04:56:32;;;;;;;6.33;3.23;;;;;;;9.36;100.00;94252.69;5054590;28;20193;-62
2022/05/03 04:58:58;;;;;;;4.70;3.20;;;;;;;9.33;100.00;94277.38;5061271;23;20200;-64
2022/05/03 05:01:24;;;;;;;5.30;3.47;;;;;;;9.44;100.00;94266.31;5053858;28;20182;-59
2022/05/03 05:03:49;;;;;;;5.90;3.57;;;;;;;9.39;100.00;94250.72;5053791;28;20196;-63
2022/05/03 05:06:15;;;;;;;3.83;3.37;;;;;;;9.44;100.00;94257.91;5053549;28;20239;-63
2022/05/03 05:08:43;;;;;;;5.43;3.40;;;;;;;9.62;100.00;94261.38;5054029;28;20607;-62
2022/05/03 05:11:09;;;;;;;4.50;2.83;;;;;;;9.68;100.00;94288.75;5053736;28;20185;-63
2022/05/03 05:13:36;;;;;;;4.20;2.90;;;;;;;9.58;100.00;94268.47;5061353;22;20226;-63
2022/05/03 05:16:02;;;;;;;4.00;2.83;;;;;;;9.67;100.00;94289.72;5035286;28;20209;-62
2022/05/03 05:18:28;;;;;;;3.17;2.67;;;;;;;9.55;100.00;94275.56;5053837;28;20749;-60
2022/05/03 05:20:54;;;;;;;7.03;3.47;;;;;;;9.50;100.00;94280.22;5053633;28;20597;-59
2022/05/03 05:23:19;;;;;;;5.07;3.17;;;;;;;9.38;100.00;94287.16;5053648;28;20557;-61
2022/05/03 05:25:46;;;;;;;5.53;3.90;;;;;;;9.38;100.00;94281.25;5071464;22;20225;-60
2022/05/03 05:28:13;;;;;;;5.50;3.53;;;;;;;9.25;100.00;94274.72;5073317;28;20205;-59
2022/05/03 05:30:39;;;;;;;4.67;3.40;;;;;;;9.32;100.00;94264.84;5073575;28;20184;-62
2022/05/03 05:33:05;;;;;;;3.83;2.67;;;;;;;9.43;100.00;94292.66;5072039;28;20228;-61
2022/05/03 05:35:30;;;;;;;2.70;2.50;;;;;;;9.31;100.00;94264.03;5073515;28;20243;-60
2022/05/03 05:37:56;;;;;;;4.57;2.77;;;;;;;9.43;100.00;94279.97;5073394;28;20217;-63
2022/05/03 05:40:21;;;;;;;4.43;2.47;;;;;;;9.55;100.00;94291.59;5073087;28;20211;-63
2022/05/03 05:42:49;;;;;;;3.67;2.47;;;;;;;9.50;100.00;94300.50;5073401;28;20209;-61
2022/05/03 05:45:15;;;;;;;3.20;2.90;;;;;;;9.52;100.00;94284.22;5072057;28;20237;-62
2022/05/03 05:47:41;;;;;;;5.33;3.30;;;;;;;9.58;100.00;94293.03;5073183;28;20204;-60
2022/05/03 05:50:07;;;;;;;4.23;2.97;;;;;;;9.65;100.00;94294.13;5072870;28;20258;-61
2022/05/03 05:55:17;;;;;;;3.10;2.43;;;;;;;9.74;100.00;94318.69;5072608;28;20260;-61
2022/05/03 05:57:42;;;;;;;2.83;2.50;;;;;;;9.79;100.00;94332.59;5072847;28;20291;-60
2022/05/03 06:00:08;;;;;;;2.53;2.23;;;;;;;9.73;100.00;94324.72;5072715;28;20185;-60
2022/05/03 06:02:35;;;;;;;7.87;2.87;;;;;;;9.71;100.00;94319.78;5072581;28;20249;-60
2022/05/03 06:05:06;;;;;;;3.70;2.80;;;;;;;9.75;100.00;94325.38;5072482;28;20209;-62
2022/05/03 06:07:32;;;;;;;2.67;2.47;;;;;;;9.85;100.00;94314.31;5072383;28;20251;-63
2022/05/03 06:09:58;;;;;;;3.50;1.93;;;;;;;9.74;99.01;94349.94;5072548;28;20582;-60
2022/05/03 06:12:23;;;;;;;3.13;2.50;;;;;;;9.71;100.00;94317.25;5072188;28;20670;-63
2022/05/03 06:14:49;;;;;;;2.93;2.00;;;;;;;9.71;100.00;94329.94;5072235;28;20307;-61
2022/05/03 06:17:14;;;;;;;4.57;2.87;;;;;;;9.81;100.00;94325.66;5072377;28;20204;-62
2022/05/03 06:19:40;;;;;;;6.50;2.67;;;;;;;10.10;100.00;94315.50;5070835;28;20658;-61
2022/05/03 06:22:05;;;;;;;2.00;1.90;;;;;;;10.35;97.25;94364.94;5071056;28;20592;-63
2022/05/03 06:24:31;;;;;;;3.03;2.00;;;;;;;10.46;96.43;94362.28;5072442;28;20173;-64
2022/05/03 06:26:58;;;;;;;3.73;2.50;;;;;;;10.63;96.05;94353.91;5072030;28;20239;-63
2022/05/03 06:29:24;;;;;;;6.27;3.10;;;;;;;10.71;100.00;94315.91;5072133;28;20212;-59
2022/05/03 06:31:50;;;;;;;3.30;2.87;;;;;;;10.99;100.00;94315.00;5072731;28;20195;-61
2022/05/03 06:34:16;;;;;;;3.93;2.43;;;;;;;11.40;100.00;94334.06;5071095;28;20223;-61
2022/05/03 06:36:42;;;;;;;3.50;3.03;;;;;;;11.69;100.00;94315.19;5071008;28;20252;-59
2022/05/03 06:39:08;;;;;;;4.10;2.60;;;;;;;11.63;98.13;94343.72;5072145;28;20208;-64
2022/05/03 06:41:33;;;;;;;3.77;2.63;;;;;;;11.43;97.86;94354.94;5071716;28;20694;-62
2022/05/03 06:44:00;;;;;;;5.30;2.50;;;;;;;11.41;96.36;94363.69;5072033;28;20255;-60
2022/05/03 06:46:26;;;;;;;4.70;3.00;;;;;;;11.32;98.07;94334.78;5072265;28;20180;-58
2022/05/03 06:48:52;;;;;;;5.03;3.40;;;;;;;11.50;99.45;94338.19;5071947;28;20237;-63
2022/05/03 06:51:17;;;;;;;3.60;2.80;;;;;;;11.49;99.01;94330.69;5070750;28;20219;-63
2022/05/03 06:53:43;;;;;;;4.80;2.90;;;;;;;11.42;99.59;94337.28;5070559;28;20275;-64
2022/05/03 06:56:08;;;;;;;3.27;2.83;;;;;;;11.42;97.39;94363.53;5071994;28;20184;-61
2022/05/03 06:58:34;;;;;;;3.23;2.93;;;;;;;11.34;97.55;94357.53;5071673;28;20326;-59
2022/05/03 07:01:10;;;;;;;3.43;2.60;;;;;;;11.32;96.78;94362.78;5072176;28;20200;-62
2022/05/03 07:03:36;;;;;;;3.47;3.10;;;;;;;11.08;96.93;94370.13;5071734;28;20729;-61
2022/05/03 07:06:02;;;;;;;6.60;3.43;;;;;;;11.07;98.85;94342.28;5072067;28;20172;-63
2022/05/03 07:08:28;;;;;;;3.63;3.10;;;;;;;11.11;99.65;94331.66;5071658;28;20262;-63
2022/05/03 07:10:54;;;;;;;5.77;3.37;;;;;;;11.13;98.16;94367.94;5071938;28;20176;-63
2022/05/03 07:13:23;;;;;;;3.90;2.90;;;;;;;11.21;100.00;94329.88;5071554;28;20682;-63
2022/05/03 07:15:57;;;;;;;4.07;3.40;;;;;;;11.35;100.00;94342.13;5070687;28;20173;-59
2022/05/03 07:23:52;;;;;;;4.03;2.70;;;;;;;11.40;96.51;94378.16;5071840;28;20574;-61
2022/05/03 07:26:19;;;;;;;5.13;3.47;;;;;;;11.52;98.19;94356.66;5071359;28;20189;-64
2022/05/03 07:28:48;;;;;;;4.53;2.77;;;;;;;11.51;98.78;94349.94;5071593;28;20201;-63
2022/05/03 07:31:17;;;;;;;3.80;3.07;;;;;;;11.56;97.53;94360.50;5070767;28;20207;-59
2022/05/03 07:33:44;;;;;;;5.17;2.93;;;;;;;11.46;100.00;94316.50;5071472;28;20690;-62
2022/05/03 07:36:10;;;;;;;3.93;3.43;;;;;;;11.70;98.74;94352.41;5071394;28;20185;-64
2022/05/03 07:38:35;;;;;;;4.93;2.83;;;;;;;11.67;100.00;94323.91;5071570;28;20201;-62
2022/05/03 07:41:01;;;;;;;4.53;2.73;;;;;;;11.62;100.00;94339.56;5070585;28;20666;-63
2022/05/03 07:43:27;;;;;;;5.57;3.07;;;;;;;11.61;100.00;94348.16;5071352;28;20573;-61
2022/05/03 07:45:52;;;;;;;4.67;2.57;;;;;;;11.67;98.88;94362.91;5071542;28;20267;-63
2022/05/03 07:48:18;;;;;;;4.20;2.67;;;;;;;11.74;97.70;94369.00;5077775;23;20288;-63
2022/05/03 07:50:44;;;;;;;8.97;2.97;;;;;;;11.65;97.22;94385.13;5070728;28;20212;-61
2022/05/03 07:53:10;;;;;;;7.87;3.17;;;;;;;11.63;97.82;94369.19;5071327;28;20229;-62
2022/05/03 07:55:36;;;;;;;3.80;3.13;;;;;;;11.66;98.33;94363.84;5070237;28;20196;-63
2022/05/03 07:58:02;;;;;;;6.33;3.00;;;;;;;11.50;96.62;94385.72;5070000;28;20700;-63
2022/05/03 08:00:27;;;;;;;2.23;2.03;;;;;;;11.49;95.65;94390.00;5071493;28;20177;-61
2022/05/03 08:02:52;;;;;;;4.70;3.10;;;;;;;11.56;98.38;94374.97;5069933;28;20223;-61
2022/05/03 08:05:18;;;;;;;3.70;2.47;;;;;;;11.50;95.67;94393.38;5071480;28;20222;-61
2022/05/03 08:07:44;;;;;;;5.67;2.50;;;;;;;11.58;97.91;94363.72;5071587;28;20208;-63
2022/05/03 08:10:10;;;;;;;2.40;2.20;;;;;;;11.62;95.32;94404.97;5074690;28;20688;-59
2022/05/03 08:12:36;;;;;;;3.27;1.83;;;;;;;11.64;95.88;94395.44;5074621;28;20279;-59
2022/05/03 08:15:05;;;;;;;2.33;1.90;;;;;;;11.47;96.97;94383.47;5073485;28;20181;-61
2022/05/03 08:17:31;;;;;;;2.93;1.60;;;;;;;11.47;95.34;94409.72;5073631;28;20205;-63
2022/05/03 08:19:57;;;;;;;4.93;1.93;;;;;;;11.39;95.77;94399.44;5074409;28;20213;-62
2022/05/03 08:22:24;;;;;;;4.90;2.10;;;;;;;11.53;97.44;94385.47;5074591;28;20193;-59
2022/05/03 08:24:50;;;;;;;4.87;2.30;;;;;;;11.60;98.49;94381.38;5073212;28;20321;-59
2022/05/03 08:27:15;;;;;;;4.00;2.03;;;;;;;11.47;98.23;94386.81;5074440;28;20226;-62
2022/05/03 08:29:42;;;;;;;3.63;1.90;;;;;;;11.53;97.80;94398.19;5072890;28;20224;-60
2022/05/03 08:32:09;;;;;;;2.83;1.57;;;;;;;11.45;93.46;94439.59;5074355;28;20189;-61
2022/05/03 08:34:35;;;;;;;2.17;1.87;;;;;;;11.49;94.37;94419.78;5074258;28;20192;-62
2022/05/03 08:42:40;;;;;;;3.03;1.90;;;;;;;11.58;94.80;94409.53;5037030;28;20221;-61
2022/05/03 08:45:06;;;;;;;4.53;2.13;;;;;;;11.70;95.83;94393.16;5074230;28;20170;-62
2022/05/03 08:47:32;;;;;;;2.10;1.90;;;;;;;11.93;96.13;94392.75;5074311;28;20193;-64
2022/05/03 08:50:09;;;;;;;3.13;1.67;;;;;;;11.76;92.31;94442.69;5072561;28;20713;-61
2022/05/03 08:52:54;;;;;;;2.00;1.90;;;;;;;11.85;94.83;94393.47;5074090;28;20273;-64
2022/05/03 08:55:20;;;;;;;2.37;2.17;;;;;;;11.87;94.34;94409.41;5073879;28;20189;-60
2022/05/03 08:57:45;;;;;;;11.87;2.60;;;;;;;12.14;95.36;94401.69;5073752;28;20203;-60
2022/05/03 09:00:13;;;;;;;4.43;2.67;;;;;;;12.31;95.79;94395.81;5073850;28;20235;-61
2022/05/03 09:03:04;;;;;;;5.43;2.53;;;;;;;12.43;95.30;94402.28;5073697;28;20193;-62
2022/05/03 09:05:30;;;;;;;2.77;2.03;;;;;;;12.56;94.19;94422.31;5070767;28;20287;-63
2022/05/03 09:08:08;;;;;;;2.63;2.27;;;;;;;12.59;92.06;94437.31;5073957;28;20664;-63
2022/05/03 09:10:36;;;;;;;3.43;2.00;;;;;;;12.59;89.59;94461.06;5073670;28;20168;-62
2022/05/03 09:13:22;;;;;;;2.53;2.10;;;;;;;12.62;88.12;94465.84;5073656;28;20211;-61
2022/05/03 09:15:52;;;;;;;4.40;1.60;;;;;;;12.91;86.43;94491.13;5073640;28;20666;-59
2022/05/03 09:18:33;;;;;;;2.73;1.80;;;;;;;12.73;84.30;94499.72;5073711;28;20205;-60
2022/05/03 09:23:47;;;;;;;2.20;1.97;;;;;;;12.88;84.28;94491.44;5073741;28;20208;-59
2022/05/03 09:26:20;;;;;;;2.27;1.40;;;;;;;13.03;80.82;94532.53;5072071;28;20176;-60
2022/05/03 09:28:53;;;;;;;3.73;1.60;;;;;;;13.07;82.55;94493.06;5073297;28;20212;-64
2022/05/03 09:31:30;;;;;;;2.33;1.80;;;;;;;12.81;83.55;94467.44;5073196;28;20215;-64
2022/05/03 09:33:57;;;;;;;2.80;2.40;;;;;;;12.83;84.99;94445.16;5072074;28;20180;-61
2022/05/03 09:36:23;;;;;;;6.33;2.33;;;;;;;13.00;86.18;94431.56;5073104;28;20173;-59
2022/05/03 09:38:50;;;;;;;4.30;2.20;;;;;;;12.93;85.85;94440.75;5073401;28;20802;-64
2022/05/03 09:41:16;;;;;;;4.07;2.40;;;;;;;12.87;88.64;94392.88;5073244;28;20173;-60
2022/05/03 09:44:02;;;;;;;2.27;2.07;;;;;;;12.99;84.94;94455.47;5073258;28;20188;-59
2022/05/03 09:46:29;;;;;;;2.67;1.80;;;;;;;13.00;81.26;94507.31;5071546;28;20723;-62
2022/05/03 09:48:55;;;;;;;2.67;2.10;;;;;;;13.09;82.72;94470.72;5072579;28;20212;-60
2022/05/03 09:51:22;;;;;;;3.03;2.50;;;;;;;13.13;83.69;94454.16;5072684;28;20177;-60
2022/05/03 09:54:02;;;;;;;2.80;1.80;;;;;;;13.17;81.10;94488.66;5071449;28;20193;-60
2022/05/03 09:56:28;;;;;;;2.03;1.70;;;;;;;13.20;80.69;94483.22;5072653;28;20310;-63
2022/05/03 09:59:07;;;;;;;4.77;1.60;;;;;;;13.21;79.64;94488.19;5073110;28;20689;-61
2022/05/03 10:01:34;;;;;;;2.40;1.67;;;;;;;13.31;82.58;94454.91;5072461;28;20282;-61
2022/05/03 10:04:00;;;;;;;4.67;1.87;;;;;;;13.20;80.57;94481.50;5072878;28;20188;-62
2022/05/03 10:06:26;;;;;;;1.50;1.40;;;;;;;13.26;79.25;94496.22;5072331;28;20558;-62
2022/05/03 10:08:53;;;;;;;1.67;1.57;;;;;;;13.49;79.60;94494.75;5070947;28;20220;-61
2022/05/03 10:11:19;;;;;;;1.87;1.60;;;;;;;13.36;77.21;94519.88;5072179;28;20169;-62
2022/05/03 10:13:45;;;;;;;3.53;1.60;;;;;;;13.30;78.12;94494.16;5072128;28;20689;-59
2022/05/03 10:21:50;;;;;;;2.53;1.80;;;;;;;12.90;79.15;94469.13;5072227;28;20235;-61
2022/05/03 10:24:15;;;;;;;3.33;2.03;;;;;;;12.59;79.78;94448.31;5071991;28;20666;-61
2022/05/03 10:26:58;;;;;;;1.67;1.40;;;;;;;12.61;76.95;94496.63;5070780;28;20302;-61
2022/05/03 10:29:25;;;;;;;2.47;1.33;;;;;;;12.61;76.17;94515.28;5072507;28;20645;-62
2022/05/03 10:32:03;;;;;;;2.37;1.67;;;;;;;12.52;76.08;94503.38;5071466;28;20205;-62
2022/05/03 10:34:56;;;;;;;2.77;1.87;;;;;;;12.49;77.49;94472.28;5072574;28;20189;-60
2022/05/03 10:37:34;;;;;;;2.23;1.70;;;;;;;12.43;78.44;94455.81;5071996;28;20197;-63
2022/05/03 10:40:01;;;;;;;3.20;1.67;;;;;;;12.61;80.53;94426.03;5072757;28;20176;-62
2022/05/03 10:42:30;;;;;;;2.30;1.80;;;;;;;12.66;77.42;94489.34;5071964;28;20188;-62
2022/05/03 10:45:12;;;;;;;2.13;1.60;;;;;;;12.73;77.80;94469.94;5072570;28;20195;-61
2022/05/03 10:47:48;;;;;;;1.97;1.30;;;;;;;12.65;75.59;94497.94;5071996;28;20205;-62
2022/05/03 10:50:16;;;;;;;4.70;1.60;;;;;;;12.64;74.56;94516.75;5072381;28;20220;-64
2022/05/03 10:53:05;;;;;;;8.57;1.60;;;;;;;12.99;75.59;94496.28;5070295;28;20205;-63
2022/05/03 10:55:57;;;;;;;3.83;1.73;;;;;;;12.92;75.77;94490.19;5071957;28;20555;-61
2022/05/03 10:58:28;;;;;;;1.27;1.17;;;;;;;13.04;74.35;94516.31;5071929;28;20697;-61
2022/05/03 11:01:22;;;;;;;2.20;1.03;;;;;;;13.03;74.81;94507.81;5070410;28;20187;-63
2022/05/03 11:03:47;;;;;;;1.77;1.40;;;;;;;13.18;74.06;94514.03;5071853;28;20185;-60
2022/05/03 11:06:18;;;;;;;4.43;1.67;;;;;;;13.42;74.81;94495.50;5071982;28;20185;-61
2022/05/03 11:09:08;;;;;;;2.00;1.57;;;;;;;13.75;73.87;94501.59;5072028;28;20219;-64
2022/05/03 11:11:43;;;;;;;1.43;1.33;;;;;;;14.61;72.27;94523.47;5072312;28;20280;-59
2022/05/03 11:14:18;;;;;;;2.00;1.50;;;;;;;15.16;69.99;94560.31;5070519;28;20196;-60
2022/05/03 11:16:50;;;;;;;3.95;2.30;;;;;;;15.57;63.13;94651.63;5071844;28;20204;-62
2022/05/03 11:19:23;;;;;;;3.45;1.75;;;;;;;16.19;65.93;94575.75;5070634;28;20197;-59
2022/05/03 11:21:50;;;;;;;1.90;1.60;;;;;;;16.70;64.67;94564.94;5071795;28;20686;-60
2022/05/03 11:24:40;;;;;;;1.67;1.40;;;;;;;16.66;54.58;94717.69;5071894;28;20532;-60
2022/05/03 11:27:05;;;;;;;1.85;1.35;;;;;;;16.47;60.98;94553.81;5071370;28;20193;-60
2022/05/03 11:29:35;;;;;;;1.80;1.70;;;;;;;16.12;58.82;94586.84;5071721;28;20728;-63
2022/05/03 11:32:01;;;;;;;2.03;1.60;;;;;;;15.83;62.90;94488.19;5071482;28;20571;-61
2022/05/03 11:34:28;;;;;;;4.57;2.30;;;;;;;15.53;62.69;94501.75;5071889;28;20192;-63
2022/05/03 11:36:54;;;;;;;2.67;1.83;;;;;;;15.97;63.32;94494.41;5071318;28;20225;-64
2022/05/03 11:39:21;;;;;;;2.17;1.98;;;;;;;16.16;60.15;94560.66;5071147;28;20726;-62
2022/05/03 11:41:47;;;;;;;3.92;1.50;;;;;;;16.70;59.68;94570.06;5071347;28;20193;-64
2022/05/03 11:44:14;;;;;;;2.10;1.65;;;;;;;16.71;58.71;94587.09;5074254;28;20188;-64
2022/05/03 11:46:42;;;;;;;2.50;1.30;;;;;;;16.36;58.94;94576.47;5074084;28;20211;-62
2022/05/03 11:49:09;;;;;;;1.80;1.50;;;;;;;16.21;59.69;94548.16;5075407;28;20216;-61
2022/05/03 11:57:32;;;;;;;3.80;1.55;;;;;;;15.39;61.86;94489.53;5075413;28;20693;-64
2022/05/03 11:59:59;;;;;;;4.95;2.05;;;;;;;15.14;63.27;94470.06;5074171;28;20177;-63
2022/05/03 12:02:32;;;;;;;1.30;1.23;;;;;;;14.94;63.02;94479.03;5074925;28;20397;-60
2022/05/03 12:05:07;;;;;;;2.03;1.50;;;;;;;14.67;63.50;94456.31;5073850;28;20189;-63
2022/05/03 12:07:49;;;;;;;2.47;1.30;;;;;;;14.41;62.87;94463.31;5073362;28;20201;-63
2022/05/03 12:10:20;;;;;;;4.03;1.25;;;;;;;14.38;65.62;94413.31;5082470;23;20727;-63
2022/05/03 12:12:47;;;;;;;4.82;1.20;;;;;;;14.17;68.11;94365.16;5073381;28;20718;-62
2022/05/03 12:15:20;;;;;;;2.03;1.33;;;;;;;14.07;63.56;94471.03;5074793;28;20622;-62
2022/05/03 12:17:52;;;;;;;2.15;1.20;;;;;;;13.93;64.91;94451.19;5073433;28;20212;-61
2022/05/03 12:20:17;;;;;;;2.58;1.40;;;;;;;13.62;66.68;94404.94;5074552;28;20197;-61
2022/05/03 12:22:43;;;;;;;2.53;1.30;;;;;;;13.71;66.94;94400.66;5074379;28;20196;-60